Time;durP1;ratioP1;P1;durP2;ratioP2;P2;SDS_P1;SDS_P2;PMS_P1;PMS_P2;Temp;Humidity;BMP_temperature;BMP_pressure;BME280_temperature;BME280_humidity;BME280_pressure;Samples;Min_cycle;Max_cycle;Signal;HPM_P1;HPM_P2
2021/11/04 00:01:43;;;;;;;39.95;22.45;;;;;;;6.58;78.46;94797.94;5056707;28;20040;-75
2021/11/04 00:04:09;;;;;;;32.20;20.73;;;;;;;6.76;78.69;94824.25;5091503;28;20016;-75
2021/11/04 00:06:34;;;;;;;31.75;20.55;;;;;;;7.09;78.48;94895.22;5056280;28;20028;-75
2021/11/04 00:08:59;;;;;;;38.63;23.08;;;;;;;7.08;78.39;94885.84;5056528;28;20485;-75
2021/11/04 00:11:25;;;;;;;38.00;24.25;;;;;;;6.54;78.80;94793.06;5073190;28;20035;-75
2021/11/04 00:13:50;;;;;;;42.20;24.80;;;;;;;6.76;78.75;94828.59;5089952;28;20020;-75
2021/11/04 00:16:16;;;;;;;36.63;24.15;;;;;;;7.09;79.36;94870.22;5072747;28;20485;-75
2021/11/04 00:18:41;;;;;;;36.38;22.27;;;;;;;6.77;79.38;94822.50;5089930;28;20539;-75
2021/11/04 00:21:07;;;;;;;38.88;24.40;;;;;;;7.15;80.17;94872.38;5056488;28;20039;-75
2021/11/04 00:23:32;;;;;;;37.13;21.30;;;;;;;6.81;80.05;94811.84;5056430;28;20024;-76
2021/11/04 00:25:58;;;;;;;38.17;23.35;;;;;;;6.88;79.95;94817.44;5056345;28;20167;-75
2021/11/04 00:28:24;;;;;;;39.22;23.33;;;;;;;7.21;79.75;94878.88;5056260;28;20016;-75
2021/11/04 00:30:49;;;;;;;36.17;22.92;;;;;;;6.83;79.95;94799.69;5073162;28;20512;-75
2021/11/04 00:33:14;;;;;;;39.55;22.83;;;;;;;7.24;80.37;94889.00;5056117;28;20024;-74
2021/11/04 00:35:40;;;;;;;38.30;23.58;;;;;;;7.20;80.00;94863.50;5072817;28;20040;-75
2021/11/04 00:38:06;;;;;;;41.60;24.65;;;;;;;7.24;80.18;94845.06;5060128;28;20562;-75
2021/11/04 00:40:31;;;;;;;37.28;23.38;;;;;;;6.86;80.53;94798.66;5059960;28;20047;-75
2021/11/04 00:42:57;;;;;;;41.90;25.83;;;;;;;6.83;80.20;94794.50;5076398;28;20028;-75
2021/11/04 00:45:22;;;;;;;41.38;26.08;;;;;;;7.26;80.40;94847.56;5060020;28;20028;-75
2021/11/04 00:47:48;;;;;;;40.38;24.42;;;;;;;6.94;81.64;94797.19;5059891;28;20039;-75
2021/11/04 00:50:14;;;;;;;45.22;25.98;;;;;;;6.99;81.25;94808.94;5076491;28;20036;-75
2021/11/04 00:52:39;;;;;;;39.28;24.98;;;;;;;7.35;80.91;94867.59;5076282;28;20055;-75
2021/11/04 00:55:06;;;;;;;41.88;23.88;;;;;;;7.41;81.24;94876.69;5059854;28;20032;-75
2021/11/04 00:57:31;;;;;;;40.00;23.25;;;;;;;7.41;80.93;94861.16;5059920;28;20513;-75
2021/11/04 00:59:57;;;;;;;40.03;24.73;;;;;;;7.35;81.27;94867.59;5076046;28;20199;-75
2021/11/04 01:02:22;;;;;;;40.95;25.27;;;;;;;7.36;80.98;94870.09;5076058;28;20417;-75
2021/11/04 01:04:48;;;;;;;42.17;25.40;;;;;;;7.38;80.13;94877.72;5059642;28;20032;-75
2021/11/04 01:07:13;;;;;;;42.90;26.20;;;;;;;7.03;79.90;94837.06;5076232;28;20024;-76
2021/11/04 01:09:39;;;;;;;36.22;23.02;;;;;;;7.24;79.94;94868.31;5059539;28;20032;-75
2021/11/04 01:12:05;;;;;;;36.10;21.52;;;;;;;7.23;79.07;94891.69;5075952;28;20024;-75
2021/11/04 01:14:30;;;;;;;38.45;23.55;;;;;;;6.97;79.72;94842.66;5059312;28;20036;-75
2021/11/04 01:16:56;;;;;;;37.25;20.88;;;;;;;7.05;80.14;94871.38;5059662;28;20398;-75
2021/11/04 01:19:21;;;;;;;33.92;22.73;;;;;;;6.83;81.11;94797.09;5075901;28;20039;-75
2021/11/04 01:21:47;;;;;;;38.08;22.10;;;;;;;7.36;81.97;94853.75;5075774;28;20036;-76
2021/11/04 01:24:12;;;;;;;30.35;19.10;;;;;;;6.88;81.08;94781.28;5059117;28;20085;-75
2021/11/04 01:26:38;;;;;;;32.58;20.63;;;;;;;7.35;80.81;94858.09;5059180;28;20035;-74
2021/11/04 01:29:03;;;;;;;34.05;20.85;;;;;;;7.51;81.19;94844.91;5059084;28;20024;-75
2021/11/04 01:31:29;;;;;;;34.70;22.13;;;;;;;7.50;80.92;94856.19;5058676;28;20134;-75
2021/11/04 01:33:54;;;;;;;30.40;19.27;;;;;;;7.48;80.94;94865.81;5058914;28;20027;-75
2021/11/04 01:36:20;;;;;;;31.65;19.63;;;;;;;7.36;80.67;94833.06;5058901;28;20028;-75
2021/11/04 01:38:45;;;;;;;35.28;20.92;;;;;;;7.10;80.71;94799.53;5092553;28;20101;-75
2021/11/04 01:41:10;;;;;;;28.48;19.23;;;;;;;7.52;80.60;94849.16;5075362;28;20464;-75
2021/11/04 01:43:36;;;;;;;30.15;18.92;;;;;;;7.35;80.25;94828.81;5092450;28;20058;-76
2021/11/04 01:46:02;;;;;;;32.38;20.67;;;;;;;7.10;79.34;94806.44;5075686;28;20043;-76
2021/11/04 01:48:27;;;;;;;29.52;18.15;;;;;;;7.23;79.71;94842.59;5058764;28;20024;-75
2021/11/04 01:50:53;;;;;;;31.13;17.92;;;;;;;7.32;78.88;94865.22;5058590;28;20421;-75
2021/11/04 01:53:19;;;;;;;27.42;17.83;;;;;;;7.27;78.81;94857.81;5058653;28;20051;-75
2021/11/04 01:55:45;;;;;;;24.95;17.58;;;;;;;7.21;78.69;94860.78;5058756;28;20465;-75
2021/11/04 01:58:10;;;;;;;29.30;17.67;;;;;;;6.86;78.96;94803.81;5058592;28;20062;-75
2021/11/04 02:00:36;;;;;;;25.27;16.88;;;;;;;6.86;79.13;94819.31;5058037;28;20078;-76
2021/11/04 02:03:10;;;;;;;28.23;16.25;;;;;;;7.00;77.69;94863.09;5091922;28;20027;-75
2021/11/04 02:05:54;;;;;;;27.13;16.55;;;;;;;6.94;78.02;94860.94;5091875;28;20406;-76
2021/11/04 02:09:21;;;;;;;26.58;16.92;;;;;;;6.68;78.35;94845.41;5092198;28;20425;-75
2021/11/04 02:11:51;;;;;;;26.92;17.10;;;;;;;6.33;78.38;94797.94;4991556;28;20053;-75
2021/11/04 02:14:24;;;;;;;32.17;19.05;;;;;;;6.64;78.56;94859.47;5040969;28;20036;-75
2021/11/04 02:16:50;;;;;;;30.60;18.40;;;;;;;6.18;78.59;94826.34;5059123;28;20647;-75
2021/11/04 02:19:38;;;;;;;32.70;18.10;;;;;;;6.40;77.61;94873.97;5057955;28;20028;-76
2021/11/04 02:22:04;;;;;;;28.90;19.30;;;;;;;6.44;78.86;94878.03;5077272;28;20123;-76
2021/11/04 02:25:03;;;;;;;46.25;28.85;;;;;;;6.03;79.38;94824.78;5074369;28;20038;-75
2021/11/04 02:27:29;;;;;;;48.65;28.73;;;;;;;5.90;80.09;94811.81;5076341;28;20023;-75
2021/11/04 02:29:54;;;;;;;43.88;26.25;;;;;;;6.38;80.39;94874.09;5074282;28;20032;-75
2021/11/04 02:32:20;;;;;;;41.63;25.88;;;;;;;6.31;80.33;94890.06;5074634;28;20080;-75
2021/11/04 02:34:45;;;;;;;40.00;26.65;;;;;;;6.00;80.21;94835.31;5074503;28;20044;-75
2021/11/04 02:37:11;;;;;;;37.28;21.40;;;;;;;6.06;80.50;94834.09;5074433;28;20114;-75
2021/11/04 02:39:36;;;;;;;35.97;21.20;;;;;;;6.36;80.36;94882.88;5057427;28;20512;-75
2021/11/04 02:42:02;;;;;;;35.58;21.85;;;;;;;6.38;80.47;94881.00;5057878;28;20092;-75
2021/11/04 02:44:27;;;;;;;42.38;24.70;;;;;;;6.39;80.45;94877.50;5057828;28;20065;-75
2021/11/04 02:46:56;;;;;;;32.15;20.45;;;;;;;6.40;80.66;94879.16;5057738;28;20067;-76
2021/11/04 02:49:23;;;;;;;26.65;17.73;;;;;;;6.41;80.11;94885.97;5057384;28;20032;-76
2021/11/04 02:51:49;;;;;;;37.67;21.50;;;;;;;6.25;79.21;94886.13;5074483;28;20081;-76
2021/11/04 02:54:14;;;;;;;36.90;22.17;;;;;;;5.88;79.61;94847.22;5057433;28;20040;-76
2021/11/04 02:56:53;;;;;;;34.17;21.58;;;;;;;5.73;79.71;94818.06;5091916;28;20074;-75
2021/11/04 02:59:20;;;;;;;33.72;20.00;;;;;;;5.90;79.53;94855.66;5057852;28;20135;-75
2021/11/04 03:01:49;;;;;;;37.67;20.95;;;;;;;6.09;79.42;94878.56;5073486;28;20133;-75
2021/11/04 03:04:15;;;;;;;32.53;19.85;;;;;;;6.24;79.53;94920.59;5057364;28;20032;-75
2021/11/04 03:06:41;;;;;;;30.83;19.85;;;;;;;6.18;79.66;94926.16;5057102;28;20027;-75
2021/11/04 03:09:06;;;;;;;33.35;21.05;;;;;;;6.16;79.18;94912.53;5056879;28;20024;-76
2021/11/04 03:11:32;;;;;;;29.17;18.10;;;;;;;6.06;77.88;94922.59;5073883;28;20032;-76
2021/11/04 03:13:57;;;;;;;27.63;16.27;;;;;;;6.05;78.88;94923.53;5056910;28;20028;-75
2021/11/04 03:16:23;;;;;;;34.78;19.75;;;;;;;5.57;78.15;94859.47;5056809;28;20129;-75
2021/11/04 03:18:49;;;;;;;38.50;22.45;;;;;;;5.38;79.59;94841.72;5056720;28;20520;-75
2021/11/04 03:21:15;;;;;;;41.30;23.75;;;;;;;5.57;80.06;94864.63;5056952;28;20036;-75
2021/11/04 03:23:41;;;;;;;40.10;22.55;;;;;;;5.65;80.43;94866.69;5057201;28;20020;-75
2021/11/04 03:26:06;;;;;;;44.35;24.48;;;;;;;5.88;80.50;94903.09;5073992;28;20047;-75
2021/11/04 03:28:32;;;;;;;37.58;24.63;;;;;;;6.12;80.79;94922.19;5056679;28;20032;-76
2021/11/04 03:30:57;;;;;;;40.85;24.42;;;;;;;5.95;80.54;94918.13;5073492;28;20066;-75
2021/11/04 03:33:22;;;;;;;34.63;20.20;;;;;;;5.99;80.43;94916.16;5056871;28;20035;-75
2021/11/04 03:35:48;;;;;;;36.72;23.02;;;;;;;6.00;80.60;94917.84;5073789;28;20432;-75
2021/11/04 03:38:13;;;;;;;45.83;24.10;;;;;;;5.58;81.22;94860.28;5056556;28;20032;-75
2021/11/04 03:40:39;;;;;;;53.63;27.30;;;;;;;5.95;82.69;94900.06;5056754;28;20043;-75
2021/11/04 03:43:05;;;;;;;44.97;26.17;;;;;;;6.14;82.85;94925.53;5073613;28;20432;-75
2021/11/04 03:45:30;;;;;;;50.65;27.38;;;;;;;6.28;84.39;94919.47;5056973;28;20025;-75
2021/11/04 03:47:56;;;;;;;51.25;27.83;;;;;;;6.49;83.60;94925.00;5073243;28;20032;-75
2021/11/04 03:50:24;;;;;;;43.42;24.63;;;;;;;6.44;83.11;94889.19;5090331;28;20036;-75
2021/11/04 03:52:49;;;;;;;38.65;21.17;;;;;;;6.32;82.96;94863.34;5073482;28;20103;-75
2021/11/04 03:55:15;;;;;;;33.20;19.77;;;;;;;6.75;83.01;94914.75;5073426;28;20028;-75
2021/11/04 03:57:41;;;;;;;35.67;19.20;;;;;;;6.53;83.04;94859.34;5056345;28;20050;-75
2021/11/04 04:00:08;;;;;;;32.22;17.48;;;;;;;6.99;82.63;94907.09;5056447;28;20566;-75
2021/11/04 04:02:34;;;;;;;33.00;18.00;;;;;;;6.79;82.45;94854.22;5073478;28;20501;-75
2021/11/04 04:04:59;;;;;;;33.72;20.52;;;;;;;7.17;82.27;94903.28;5090124;28;20064;-76
2021/11/04 04:07:31;;;;;;;30.20;17.42;;;;;;;7.01;81.43;94879.41;5056256;28;20024;-75
2021/11/04 04:09:56;;;;;;;30.65;16.55;;;;;;;7.17;81.35;94918.78;5073405;28;20080;-76
2021/11/04 04:12:22;;;;;;;30.27;17.17;;;;;;;7.17;81.33;94916.19;5059023;28;20493;-75
2021/11/04 04:14:47;;;;;;;28.25;15.60;;;;;;;7.26;81.18;94909.56;5060522;28;20455;-76
2021/11/04 04:17:13;;;;;;;25.40;14.35;;;;;;;7.31;81.07;94907.50;5060265;28;20032;-76
2021/11/04 04:19:38;;;;;;;28.15;16.52;;;;;;;7.07;80.72;94874.66;5060269;28;20032;-76
2021/11/04 04:22:04;;;;;;;23.58;13.82;;;;;;;7.43;80.71;94917.00;5077277;28;20036;-75
2021/11/04 04:24:30;;;;;;;25.63;14.50;;;;;;;7.06;80.66;94859.28;5077143;28;20040;-76
2021/11/04 04:26:55;;;;;;;25.60;15.20;;;;;;;7.31;80.17;94903.16;5059950;28;20039;-76
2021/11/04 04:29:20;;;;;;;27.70;15.35;;;;;;;6.96;79.99;94853.06;5077028;28;20024;-74
2021/11/04 04:31:46;;;;;;;21.23;12.95;;;;;;;7.40;80.39;94912.03;5060379;28;20513;-75
2021/11/04 04:34:12;;;;;;;22.85;14.30;;;;;;;6.95;80.22;94831.59;5076912;28;20028;-76
2021/11/04 04:36:37;;;;;;;24.27;14.77;;;;;;;7.39;80.22;94887.97;5076752;28;20032;-76
2021/11/04 04:39:03;;;;;;;26.38;15.75;;;;;;;7.22;80.31;94852.13;5093746;28;20025;-75
2021/11/04 04:41:28;;;;;;;22.75;14.25;;;;;;;7.57;80.02;94908.28;5093478;28;20040;-75
2021/11/04 04:43:55;;;;;;;27.00;14.15;;;;;;;7.48;80.38;94899.41;5093447;28;20085;-76
2021/11/04 04:46:21;;;;;;;21.27;12.55;;;;;;;7.26;80.10;94857.91;5060084;28;20059;-76
2021/11/04 04:48:47;;;;;;;23.08;14.40;;;;;;;7.65;80.15;94915.53;5076750;28;20020;-76
2021/11/04 04:51:13;;;;;;;23.75;13.27;;;;;;;7.42;80.35;94874.00;5076767;28;20029;-76
2021/11/04 04:53:38;;;;;;;22.45;12.18;;;;;;;7.74;79.94;94915.69;5059858;28;20509;-76
2021/11/04 04:56:04;;;;;;;20.42;12.52;;;;;;;7.78;79.67;94922.31;5076305;28;20020;-76
2021/11/04 04:58:29;;;;;;;38.88;25.33;;;;;;;7.74;79.12;94927.78;5059743;28;20051;-74
2021/11/04 05:00:55;;;;;;;153.82;84.07;;;;;;;7.63;79.00;94930.31;5059460;28;20048;-76
2021/11/04 05:03:20;;;;;;;131.95;68.72;;;;;;;7.56;78.77;94938.50;5059561;28;20437;-76
2021/11/04 05:05:46;;;;;;;70.97;37.08;;;;;;;7.36;78.54;94920.94;5076208;28;20035;-74
2021/11/04 05:08:12;;;;;;;65.03;33.47;;;;;;;7.41;78.14;94944.72;5076369;28;20387;-74
2021/11/04 05:10:37;;;;;;;69.53;32.97;;;;;;;7.32;78.37;94940.97;5059842;28;20485;-74
2021/11/04 05:13:03;;;;;;;50.13;26.77;;;;;;;6.77;77.78;94866.38;5075948;28;20093;-74
2021/11/04 05:15:28;;;;;;;34.72;16.30;;;;;;;7.07;77.94;94910.81;5094108;28;20050;-74
2021/11/04 05:17:54;;;;;;;18.13;12.02;;;;;;;7.15;78.16;94941.31;5059371;28;20031;-74
2021/11/04 05:20:19;;;;;;;16.98;10.60;;;;;;;6.66;78.54;94865.38;5092878;28;20032;-75
2021/11/04 05:22:45;;;;;;;18.63;11.30;;;;;;;6.78;79.04;94874.03;5058900;28;20076;-76
2021/11/04 05:25:10;;;;;;;19.83;11.38;;;;;;;7.22;79.49;94934.81;5059013;28;20058;-76
2021/11/04 05:27:36;;;;;;;18.23;10.93;;;;;;;6.90;79.26;94875.78;5076005;28;20402;-76
2021/11/04 05:30:03;;;;;;;20.27;12.68;;;;;;;7.15;78.68;94924.03;5059251;28;20024;-75
2021/11/04 05:32:28;;;;;;;24.10;12.00;;;;;;;7.28;79.30;94938.72;5075823;28;20054;-76
2021/11/04 05:34:54;;;;;;;19.67;11.05;;;;;;;7.00;79.56;94888.94;5058719;28;20477;-76
2021/11/04 05:37:19;;;;;;;80.68;35.83;;;;;;;6.89;79.61;94865.56;5059030;28;20024;-74
2021/11/04 05:39:45;;;;;;;54.95;29.58;;;;;;;7.31;79.39;94939.34;5058757;28;20027;-74
2021/11/04 05:42:10;;;;;;;44.03;24.52;;;;;;;6.80;78.93;94853.25;5058921;28;20043;-74
2021/11/04 05:44:36;;;;;;;39.53;22.33;;;;;;;6.98;78.11;94875.28;5092395;28;20157;-74
2021/11/04 05:47:02;;;;;;;32.33;18.45;;;;;;;7.27;78.55;94937.06;5075579;28;20398;-74
2021/11/04 05:49:28;;;;;;;30.83;17.85;;;;;;;7.28;78.51;94942.13;5058751;28;20037;-74
2021/11/04 05:51:53;;;;;;;43.85;25.20;;;;;;;7.09;79.10;94924.47;5058558;28;20663;-74
2021/11/04 05:54:19;;;;;;;72.22;37.00;;;;;;;7.19;77.88;94947.09;5075238;28;20024;-74
2021/11/04 05:56:44;;;;;;;49.28;27.33;;;;;;;7.11;77.85;94950.19;5092190;28;20517;-74
2021/11/04 05:59:10;;;;;;;35.15;22.83;;;;;;;7.07;78.23;94943.56;5058493;28;20045;-74
2021/11/04 06:01:35;;;;;;;36.92;22.30;;;;;;;7.00;78.44;94937.19;5074582;28;20139;-74
2021/11/04 06:04:01;;;;;;;28.00;18.08;;;;;;;6.74;78.14;94898.41;5058553;28;20485;-74
2021/11/04 06:06:26;;;;;;;26.52;15.88;;;;;;;6.68;78.58;94889.31;5058677;28;20500;-75
2021/11/04 06:08:51;;;;;;;24.63;17.20;;;;;;;7.13;78.82;94956.94;5058356;28;20028;-76
2021/11/04 06:11:17;;;;;;;22.60;12.60;;;;;;;6.77;78.96;94899.94;5057962;28;20039;-74
2021/11/04 06:13:42;;;;;;;19.35;12.20;;;;;;;6.84;78.83;94919.28;5075061;28;20024;-75
2021/11/04 06:16:13;;;;;;;16.17;9.90;;;;;;;7.06;79.02;94957.44;5058316;28;20028;-76
2021/11/04 06:18:42;;;;;;;14.27;9.63;;;;;;;6.83;79.28;94933.13;5059992;28;20035;-76
2021/11/04 06:21:08;;;;;;;13.18;9.10;;;;;;;7.23;79.15;95020.91;5058313;28;20067;-76
2021/11/04 06:23:33;;;;;;;17.67;11.57;;;;;;;6.90;79.00;94993.75;5074906;28;20035;-76
2021/11/04 06:25:59;;;;;;;30.90;20.75;;;;;;;6.77;78.75;94985.16;5074963;28;20024;-74
2021/11/04 06:28:24;;;;;;;36.90;25.13;;;;;;;6.69;79.06;94972.78;5057964;28;20035;-75
2021/11/04 06:30:50;;;;;;;36.17;23.48;;;;;;;7.17;79.87;95035.03;5057779;28;20085;-76
2021/11/04 06:33:15;;;;;;;28.30;17.70;;;;;;;7.02;80.01;94998.16;5074426;28;20028;-76
2021/11/04 06:35:41;;;;;;;24.77;15.13;;;;;;;7.31;80.21;95036.72;5073986;28;20036;-76
2021/11/04 06:38:06;;;;;;;19.33;13.48;;;;;;;7.31;80.04;95022.03;5057852;28;20035;-76
2021/11/04 06:40:32;;;;;;;25.35;13.10;;;;;;;7.42;79.73;95029.09;5057408;28;20032;-76
2021/11/04 06:42:57;;;;;;;24.88;14.05;;;;;;;7.07;80.09;94952.16;5057774;28;20028;-75
2021/11/04 06:45:23;;;;;;;24.70;14.23;;;;;;;7.54;80.55;94989.47;5074438;28;20032;-76
2021/11/04 06:47:50;;;;;;;25.90;13.93;;;;;;;7.65;81.71;94964.66;5074335;28;20025;-75
2021/11/04 06:50:20;;;;;;;26.05;15.60;;;;;;;8.32;82.88;95001.31;5074182;28;20512;-76
2021/11/04 06:53:05;;;;;;;25.88;14.90;;;;;;;8.39;80.89;94940.44;5057741;28;20518;-74
2021/11/04 06:55:30;;;;;;;22.45;13.88;;;;;;;9.04;81.22;94996.13;5091112;28;20028;-74
2021/11/04 06:57:59;;;;;;;19.80;13.00;;;;;;;9.33;79.21;94985.38;5074212;28;20093;-74
2021/11/04 07:00:25;;;;;;;18.20;12.25;;;;;;;9.48;78.75;94988.59;5057435;28;20134;-74
2021/11/04 07:02:51;;;;;;;19.95;12.48;;;;;;;9.52;76.47;94974.44;5073756;28;20036;-74
2021/11/04 07:05:18;;;;;;;16.70;11.00;;;;;;;9.73;76.35;94965.00;5074116;28;20039;-74
2021/11/04 07:07:46;;;;;;;17.23;10.70;;;;;;;10.13;76.24;94977.47;5057484;28;20077;-74
2021/11/04 07:10:11;;;;;;;16.77;11.88;;;;;;;10.44;77.04;94985.47;5057737;28;20059;-74
2021/11/04 07:12:41;;;;;;;16.67;10.93;;;;;;;10.71;76.47;94933.09;5057176;28;20437;-74
2021/11/04 07:15:07;;;;;;;21.40;13.55;;;;;;;11.56;84.14;95008.38;5056958;28;20024;-74
2021/11/04 07:17:32;;;;;;;18.45;10.13;;;;;;;11.54;78.91;94960.03;5057008;28;20417;-74
2021/11/04 07:19:58;;;;;;;18.73;12.30;;;;;;;11.96;82.52;94983.41;5073720;28;20070;-74
2021/11/04 07:22:52;;;;;;;13.80;9.57;;;;;;;12.38;70.23;95019.72;5056742;28;20040;-76
2021/11/04 07:25:19;;;;;;;18.55;9.90;;;;;;;12.46;78.50;95004.25;5090565;28;20371;-74
2021/11/04 07:28:07;;;;;;;17.90;12.10;;;;;;;12.85;77.07;95012.13;5056812;28;20123;-74
2021/11/04 07:30:32;;;;;;;16.42;10.80;;;;;;;13.18;76.32;95037.81;5073389;28;20036;-74
2021/11/04 07:33:03;;;;;;;18.40;11.15;;;;;;;13.48;71.94;95024.75;5073620;28;20044;-74
2021/11/04 07:35:39;;;;;;;17.13;11.90;;;;;;;13.73;67.64;95024.16;5074235;28;20059;-74
2021/11/04 07:38:06;;;;;;;16.67;11.38;;;;;;;13.83;64.98;95017.13;5075135;28;20040;-74
2021/11/04 07:40:31;;;;;;;17.45;11.00;;;;;;;13.55;63.87;94968.44;5073680;28;20059;-75
2021/11/04 07:42:57;;;;;;;13.35;8.77;;;;;;;13.78;62.52;95021.94;5073201;28;20519;-74
2021/11/04 07:45:23;;;;;;;11.57;8.98;;;;;;;13.62;61.23;95011.28;5091489;28;20027;-74
2021/11/04 07:47:48;;;;;;;9.93;7.80;;;;;;;13.52;62.86;95020.94;5090191;28;20044;-74
2021/11/04 07:50:16;;;;;;;11.63;8.02;;;;;;;13.49;63.25;95005.53;5090249;28;20472;-74
2021/11/04 07:52:41;;;;;;;11.27;7.80;;;;;;;13.61;63.79;95025.28;5073263;28;20036;-74
2021/11/04 07:55:09;;;;;;;12.15;8.05;;;;;;;13.61;63.69;95007.03;5056564;28;20125;-74
2021/11/04 07:57:36;;;;;;;11.48;8.52;;;;;;;13.68;63.38;95017.72;5073396;28;20040;-74
2021/11/04 08:00:10;;;;;;;10.18;7.50;;;;;;;13.27;63.42;94936.25;5056681;28;20048;-74
2021/11/04 08:02:35;;;;;;;11.95;8.63;;;;;;;13.74;63.90;95009.34;5089861;28;20024;-74
2021/11/04 08:05:01;;;;;;;11.90;8.68;;;;;;;13.84;63.30;94999.66;5073075;28;20046;-74
2021/11/04 08:07:29;;;;;;;13.88;8.25;;;;;;;13.86;62.86;95005.59;5055952;28;20043;-74
2021/11/04 08:09:56;;;;;;;12.13;9.00;;;;;;;13.91;62.97;95005.16;5073351;28;20027;-74
2021/11/04 08:12:21;;;;;;;16.95;11.38;;;;;;;14.01;62.95;95005.94;5072801;28;20704;-75
2021/11/04 08:14:47;;;;;;;17.55;11.60;;;;;;;14.09;62.38;95019.09;5091108;28;20052;-75
2021/11/04 08:17:12;;;;;;;15.40;10.60;;;;;;;14.21;62.77;95019.78;5089988;28;20029;-74
2021/11/04 08:19:37;;;;;;;16.02;11.80;;;;;;;14.31;62.37;95023.97;5089896;28;20058;-75
2021/11/04 08:22:03;;;;;;;18.67;12.02;;;;;;;14.45;62.18;95024.44;5091059;28;20051;-75
2021/11/04 08:24:28;;;;;;;20.02;13.48;;;;;;;14.46;60.23;95020.88;5089804;28;20482;-75
2021/11/04 08:26:54;;;;;;;17.25;12.52;;;;;;;14.52;59.60;95028.16;5073221;28;20078;-75
2021/11/04 08:29:19;;;;;;;20.35;11.88;;;;;;;14.46;60.12;95028.72;5072917;28;20032;-74
2021/11/04 08:31:45;;;;;;;15.85;10.88;;;;;;;14.54;61.21;95023.59;5091022;28;20043;-75
2021/11/04 08:34:10;;;;;;;18.00;13.40;;;;;;;14.26;60.52;94973.94;5089951;28;20051;-75
2021/11/04 08:36:36;;;;;;;17.45;11.70;;;;;;;14.56;60.35;94995.53;5056095;28;20039;-75
2021/11/04 08:39:01;;;;;;;16.23;11.63;;;;;;;14.82;60.09;95034.03;5056209;28;20028;-75
2021/11/04 08:41:27;;;;;;;17.13;11.05;;;;;;;14.94;61.13;95023.22;5089453;28;20036;-75
2021/11/04 08:43:52;;;;;;;13.25;9.00;;;;;;;15.09;61.46;95033.16;5072940;28;20417;-74
2021/11/04 08:46:17;;;;;;;14.98;10.35;;;;;;;15.23;61.62;95021.34;5056131;28;20032;-75
2021/11/04 08:48:43;;;;;;;14.73;11.10;;;;;;;15.34;61.46;95027.16;5072712;28;20027;-75
2021/11/04 08:51:08;;;;;;;13.73;9.63;;;;;;;15.46;61.26;95030.41;5055916;28;20028;-75
2021/11/04 08:53:34;;;;;;;16.48;11.48;;;;;;;15.54;60.97;95017.34;5089661;28;20036;-75
2021/11/04 08:55:59;;;;;;;13.15;9.80;;;;;;;15.64;60.58;95025.94;5056293;28;20210;-74
2021/11/04 08:58:25;;;;;;;16.50;12.07;;;;;;;15.66;59.00;95007.47;5058067;28;20047;-74
2021/11/04 09:00:54;;;;;;;15.35;10.38;;;;;;;15.18;59.03;94915.34;5075733;28;20052;-75
2021/11/04 09:03:20;;;;;;;18.83;13.50;;;;;;;15.77;56.14;95015.09;5075962;28;20114;-75
2021/11/04 09:05:47;;;;;;;15.00;10.50;;;;;;;15.80;57.00;95021.84;5076313;28;20024;-75
2021/11/04 09:08:12;;;;;;;14.65;10.07;;;;;;;15.78;58.05;95011.50;5092870;28;20028;-75
2021/11/04 09:10:38;;;;;;;17.10;12.20;;;;;;;15.86;57.08;95000.25;5059248;28;20473;-75
2021/11/04 09:13:04;;;;;;;15.48;11.05;;;;;;;15.99;57.77;95011.13;5076184;28;20078;-75
2021/11/04 09:15:29;;;;;;;15.65;10.60;;;;;;;16.02;57.18;94989.06;5092760;28;20024;-74
2021/11/04 09:17:55;;;;;;;17.63;11.82;;;;;;;15.78;57.90;94946.00;5075930;28;20028;-74
2021/11/04 09:20:21;;;;;;;16.25;10.98;;;;;;;16.12;57.61;94981.88;5092586;28;20039;-74
2021/11/04 09:22:48;;;;;;;17.63;11.02;;;;;;;16.09;57.72;94975.16;5092753;28;20059;-74
2021/11/04 09:25:14;;;;;;;14.50;10.68;;;;;;;16.21;58.10;94975.69;5059529;28;20040;-75
2021/11/04 09:27:40;;;;;;;14.13;9.25;;;;;;;16.41;56.41;94976.28;5075897;28;20462;-75
2021/11/04 09:30:06;;;;;;;11.70;8.98;;;;;;;16.37;56.24;94956.59;5092408;28;20085;-75
2021/11/04 09:32:32;;;;;;;13.93;9.40;;;;;;;16.50;56.29;94971.88;5058964;28;20032;-75
2021/11/04 09:35:01;;;;;;;12.82;9.05;;;;;;;16.61;57.29;94973.38;5092497;28;20054;-75
2021/11/04 09:37:26;;;;;;;13.82;8.80;;;;;;;16.42;55.91;94914.97;5092330;28;20504;-75
2021/11/04 09:39:51;;;;;;;13.82;9.07;;;;;;;16.72;56.19;94966.03;5093294;28;20032;-75
2021/11/04 09:42:18;;;;;;;14.68;9.10;;;;;;;16.65;56.09;94948.47;5089172;28;20036;-75
2021/11/04 09:44:45;;;;;;;13.95;9.13;;;;;;;16.82;56.09;94979.00;5058749;28;20032;-75
2021/11/04 09:47:10;;;;;;;16.77;11.82;;;;;;;16.83;56.03;94975.44;5075012;28;20513;-75
2021/11/04 09:49:36;;;;;;;14.25;10.20;;;;;;;16.83;55.45;94972.81;5058183;28;20028;-75
2021/11/04 09:52:01;;;;;;;13.00;9.40;;;;;;;16.94;56.13;94990.03;5074951;28;20016;-75
2021/11/04 09:54:26;;;;;;;16.55;10.93;;;;;;;16.95;54.24;94981.19;5074723;28;20036;-75
2021/11/04 09:56:52;;;;;;;15.38;10.15;;;;;;;17.03;54.37;94977.75;5075033;28;20028;-75
2021/11/04 09:59:17;;;;;;;15.70;10.02;;;;;;;17.11;54.37;94977.75;5057868;28;20040;-75
2021/11/04 10:01:47;;;;;;;19.33;10.32;;;;;;;17.17;53.53;94969.22;5080480;28;20060;-75
2021/11/04 10:04:12;;;;;;;12.90;9.57;;;;;;;17.17;53.81;94961.34;5056555;28;20035;-75
2021/11/04 10:06:39;;;;;;;14.00;9.95;;;;;;;17.35;54.02;94974.31;5090957;28;20028;-75
2021/11/04 10:09:08;;;;;;;15.05;9.82;;;;;;;17.40;54.71;94970.19;5058097;28;20034;-75
2021/11/04 10:11:36;;;;;;;18.77;11.68;;;;;;;17.43;51.40;94955.91;5074689;28;20027;-75
2021/11/04 10:14:07;;;;;;;15.65;11.88;;;;;;;17.45;51.85;94961.03;5074708;28;20024;-75
2021/11/04 10:16:33;;;;;;;45.55;25.38;;;;;;;17.46;52.11;94957.41;5057862;28;20472;-75
2021/11/04 10:19:01;;;;;;;18.08;12.50;;;;;;;17.36;51.47;94926.88;5057623;28;20067;-75
2021/11/04 10:21:27;;;;;;;20.48;11.38;;;;;;;17.29;51.87;94919.84;5057625;28;20509;-75
2021/11/04 10:23:53;;;;;;;20.27;13.50;;;;;;;17.50;51.66;94930.66;5057501;28;20024;-75
2021/11/04 10:26:20;;;;;;;16.58;10.70;;;;;;;17.55;51.60;94919.63;5074128;28;20028;-75
2021/11/04 10:28:51;;;;;;;19.95;14.18;;;;;;;17.63;52.78;94932.75;5091047;28;20451;-75
2021/11/04 10:31:18;;;;;;;15.77;11.48;;;;;;;17.63;52.88;94923.06;5074089;28;20122;-75
2021/11/04 10:33:44;;;;;;;14.88;10.63;;;;;;;17.64;52.71;94927.34;5057478;28;20421;-75
2021/11/04 10:36:11;;;;;;;17.67;10.82;;;;;;;17.75;51.04;94938.47;5073925;28;20545;-75
2021/11/04 10:38:41;;;;;;;19.38;11.05;;;;;;;17.72;50.83;94923.88;5090762;28;20413;-75
2021/11/04 10:41:21;;;;;;;16.63;10.27;;;;;;;17.66;51.03;94893.00;5092285;28;20063;-75
2021/11/04 10:43:47;;;;;;;13.10;9.55;;;;;;;17.80;50.87;94908.13;5090818;28;20036;-75
2021/11/04 10:46:13;;;;;;;14.68;9.23;;;;;;;17.90;51.66;94897.41;5074031;28;20059;-75
2021/11/04 10:48:40;;;;;;;14.02;9.90;;;;;;;17.83;51.89;94864.94;5090804;28;20120;-75
2021/11/04 10:51:05;;;;;;;14.38;9.48;;;;;;;18.04;51.67;94888.81;5057207;28;20032;-75
2021/11/04 10:53:31;;;;;;;14.82;9.25;;;;;;;18.08;51.98;94894.56;5090618;28;20485;-75
2021/11/04 10:56:15;;;;;;;15.63;10.15;;;;;;;18.15;51.53;94894.69;5073529;28;20482;-75
2021/11/04 10:58:41;;;;;;;14.65;8.82;;;;;;;18.15;52.08;94882.34;5057471;28;20043;-75
2021/11/04 11:01:07;;;;;;;16.67;9.73;;;;;;;18.14;51.70;94888.59;5073235;28;20048;-75
2021/11/04 11:03:32;;;;;;;18.02;10.88;;;;;;;18.13;51.49;94865.09;5056874;28;20556;-76
2021/11/04 11:05:59;;;;;;;16.48;9.95;;;;;;;18.27;51.73;94888.84;5090153;28;20515;-76
2021/11/04 11:08:26;;;;;;;20.52;11.73;;;;;;;18.28;50.50;94877.34;5073622;28;20497;-76
2021/11/04 11:10:51;;;;;;;19.17;10.85;;;;;;;18.28;49.43;94858.94;5073531;28;20512;-76
2021/11/04 11:13:17;;;;;;;16.00;11.05;;;;;;;18.35;50.40;94858.25;5073579;28;20055;-75
2021/11/04 11:15:42;;;;;;;18.48;10.60;;;;;;;18.41;49.77;94861.00;5073453;28;20043;-75
2021/11/04 11:18:08;;;;;;;17.40;10.38;;;;;;;18.48;49.16;94854.06;5073326;28;20028;-75
2021/11/04 11:20:42;;;;;;;18.00;11.07;;;;;;;18.56;49.75;94871.59;5089724;28;20031;-75
2021/11/04 11:23:16;;;;;;;15.57;10.73;;;;;;;18.66;49.18;94858.22;5057708;28;20028;-75